Time;durP1;ratioP1;P1;durP2;ratioP2;P2;SDS_P1;SDS_P2;PMS_P1;PMS_P2;Temp;Humidity;BMP_temperature;BMP_pressure;BME280_temperature;BME280_humidity;BME280_pressure;Samples;Min_cycle;Max_cycle;Signal;HPM_P1;HPM_P2
2021/10/12 00:01:00;;;;;;;13.50;5.40;;;8.50;99.90;;;;;;5069045;28;19928;-60
2021/10/12 00:03:25;;;;;;;;;;;8.50;99.90;;;;;;5084290;28;20048;-60
2021/10/12 00:05:51;;;;;;;11.07;4.03;;;8.50;99.90;;;;;;5083651;28;19924;-58
2021/10/12 00:08:16;;;;;;;;;;;8.50;99.90;;;;;;5078330;28;20036;-58
2021/10/12 00:10:42;;;;;;;12.80;4.45;;;8.40;99.90;;;;;;5083357;28;19959;-60
2021/10/12 00:13:08;;;;;;;;;;;8.50;99.90;;;;;;5082899;28;20044;-58
2021/10/12 00:15:33;;;;;;;11.60;3.75;;;8.50;99.90;;;;;;5082358;28;19920;-59
2021/10/12 00:17:59;;;;;;;;;;;8.50;99.90;;;;;;5074573;28;20101;-54
2021/10/12 00:20:25;;;;;;;5.72;2.63;;;8.50;99.90;;;;;;5068970;28;19928;-56
2021/10/12 00:22:50;;;;;;;9.00;2.75;;;8.50;99.90;;;;;;5068743;28;20192;-59
2021/10/12 00:25:16;;;;;;;;;;;8.50;99.90;;;;;;5069595;28;20503;-59
2021/10/12 00:27:42;;;;;;;13.60;3.10;;;8.50;99.90;;;;;;5069284;28;19989;-54
2021/10/12 00:30:07;;;;;;;9.52;2.65;;;8.50;99.90;;;;;;5064093;28;20037;-60
2021/10/12 00:32:33;;;;;;;;;;;8.50;99.90;;;;;;5041562;28;20040;-59
2021/10/12 00:35:00;;;;;;;5.15;2.17;;;8.50;99.90;;;;;;5049405;28;19917;-59
2021/10/12 00:37:25;;;;;;;9.63;3.42;;;8.60;99.90;;;;;;5043668;28;20122;-58
2021/10/12 00:39:51;;;;;;;;;;;8.50;99.90;;;;;;5049848;28;20071;-56
2021/10/12 00:42:17;;;;;;;13.25;2.72;;;8.50;99.90;;;;;;5048374;28;19985;-58
2021/10/12 00:44:44;;;;;;;5.38;2.20;;;8.50;99.90;;;;;;5049292;28;20126;-55
2021/10/12 00:47:09;;;;;;;5.35;2.65;;;8.50;99.90;;;;;;5046741;28;20045;-55
2021/10/12 00:49:35;;;;;;;;;;;8.50;99.90;;;;;;5043823;28;20045;-53
2021/10/12 00:52:01;;;;;;;6.05;2.72;;;8.40;99.90;;;;;;5042577;28;19917;-57
2021/10/12 00:54:26;;;;;;;6.82;2.65;;;8.40;99.90;;;;;;5048916;28;20045;-55
2021/10/12 00:56:51;;;;;;;;;;;8.40;99.90;;;;;;5048482;28;20041;-53
2021/10/12 00:59:18;;;;;;;8.68;3.63;;;8.40;99.90;;;;;;5045790;28;20463;-54
2021/10/12 01:01:44;;;;;;;8.15;3.22;;;8.30;99.90;;;;;;5059545;28;20043;-55
2021/10/12 01:04:10;;;;;;;;;;;8.40;99.90;;;;;;5068609;28;20404;-55
2021/10/12 01:06:35;;;;;;;8.60;3.90;;;8.30;99.90;;;;;;5066722;28;19931;-56
2021/10/12 01:09:01;;;;;;;5.95;2.92;;;8.40;99.90;;;;;;5072356;28;20463;-51
2021/10/12 01:11:27;;;;;;;9.80;2.70;;;8.30;99.90;;;;;;5087399;28;20035;-57
2021/10/12 01:13:53;;;;;;;;;;;8.30;99.90;;;;;;5089203;28;20036;-56
2021/10/12 01:16:19;;;;;;;6.72;2.67;;;8.40;99.90;;;;;;5069442;28;20426;-57
2021/10/12 01:19:04;;;;;;;;;;;8.30;99.90;;;;;;5090159;28;20028;-60
2021/10/12 01:21:44;;;;;;;5.03;2.80;;;8.30;99.90;;;;;;5087454;28;19951;-56
2021/10/12 01:24:10;;;;;;;6.43;2.63;;;8.30;99.90;;;;;;5089061;28;20071;-55
2021/10/12 01:26:37;;;;;;;;;;;8.30;99.90;;;;;;5087161;28;20044;-58
2021/10/12 01:29:04;;;;;;;7.75;2.72;;;8.30;99.90;;;;;;5062819;28;19921;-59
2021/10/12 01:31:30;;;;;;;9.07;2.58;;;8.30;99.90;;;;;;5066195;28;20036;-58
2021/10/12 01:33:55;;;;;;;;;;;8.30;99.90;;;;;;5069811;28;20114;-57
2021/10/12 01:36:21;;;;;;;6.45;2.22;;;8.20;99.90;;;;;;5067811;28;19942;-57
2021/10/12 01:38:48;;;;;;;;;;;8.20;99.90;;;;;;5075099;28;20451;-57
2021/10/12 01:41:13;;;;;;;5.13;2.63;;;8.30;99.90;;;;;;5070746;28;19939;-58
2021/10/12 01:43:39;;;;;;;;;;;8.30;99.90;;;;;;5070235;28;20493;-56
2021/10/12 01:46:06;;;;;;;10.98;3.33;;;8.30;99.90;;;;;;5055137;28;20038;-57
2021/10/12 01:48:33;;;;;;;4.70;2.00;;;8.20;99.90;;;;;;5049625;28;20033;-54
2021/10/12 01:50:59;;;;;;;6.55;2.53;;;8.30;99.90;;;;;;5056453;28;20067;-57
2021/10/12 01:53:25;;;;;;;8.30;2.00;;;8.30;99.90;;;;;;5069066;28;20036;-59
2021/10/12 01:55:50;;;;;;;;;;;8.20;99.90;;;;;;5070713;28;20078;-60
2021/10/12 01:58:16;;;;;;;5.93;2.08;;;8.20;99.90;;;;;;5067244;28;21801;-60
2021/10/12 02:00:41;;;;;;;;;;;8.20;99.90;;;;;;5063348;28;20423;-60
2021/10/12 02:03:08;;;;;;;7.10;2.10;;;8.20;99.90;;;;;;5049010;28;19927;-60
2021/10/12 02:05:33;;;;;;;3.00;1.60;;;8.20;99.90;;;;;;5047278;28;20072;-57
2021/10/12 02:07:59;;;;;;;;;;;8.20;99.90;;;;;;5043116;28;20400;-58
2021/10/12 02:10:24;;;;;;;3.35;1.50;;;8.20;99.90;;;;;;5047373;28;19921;-59
2021/10/12 02:12:50;;;;;;;;;;;8.10;99.90;;;;;;5048377;28;20037;-57
2021/10/12 02:15:16;;;;;;;4.28;1.55;;;8.10;99.90;;;;;;5047399;28;19924;-60
2021/10/12 02:17:41;;;;;;;;;;;8.10;99.90;;;;;;5066643;28;20033;-59
2021/10/12 02:20:08;;;;;;;2.40;1.52;;;8.20;99.90;;;;;;5066844;28;19916;-58
2021/10/12 02:22:34;;;;;;;6.80;1.60;;;8.20;99.90;;;;;;5067217;28;20037;-54
2021/10/12 02:24:59;;;;;;;;;;;8.20;99.90;;;;;;5068730;28;20063;-60
2021/10/12 02:27:26;;;;;;;5.88;1.58;;;8.20;99.90;;;;;;5067578;28;20273;-59
2021/10/12 02:29:51;;;;;;;3.13;1.40;;;8.20;99.90;;;;;;5067965;28;20028;-59
2021/10/12 02:32:18;;;;;;;;;;;8.20;99.90;;;;;;5049172;28;20040;-58
2021/10/12 02:34:44;;;;;;;8.18;1.60;;;8.20;99.90;;;;;;5045429;28;19973;-58
2021/10/12 02:37:10;;;;;;;1.67;1.33;;;8.10;99.90;;;;;;5047749;28;20050;-58
2021/10/12 02:39:35;;;;;;;4.00;1.20;;;8.20;99.90;;;;;;5050321;28;20086;-55
2021/10/12 02:42:02;;;;;;;;;;;8.20;99.90;;;;;;5066115;28;20456;-56
2021/10/12 02:44:28;;;;;;;3.88;1.90;;;8.10;99.90;;;;;;5067861;28;19916;-57
2021/10/12 02:46:54;;;;;;;4.93;1.65;;;8.10;99.90;;;;;;5066114;28;20664;-58
2021/10/12 02:49:19;;;;;;;;;;;8.20;99.90;;;;;;5067326;28;20040;-56
2021/10/12 02:51:45;;;;;;;4.53;1.60;;;8.10;99.90;;;;;;5063014;28;19917;-56
2021/10/12 02:54:11;;;;;;;4.25;1.90;;;8.10;99.90;;;;;;5046230;28;20537;-59
2021/10/12 02:56:37;;;;;;;;;;;8.10;99.90;;;;;;5046575;28;20130;-59
2021/10/12 02:59:03;;;;;;;5.18;1.35;;;8.10;99.90;;;;;;5047441;28;20396;-56
2021/10/12 03:01:28;;;;;;;4.40;1.42;;;8.10;99.90;;;;;;5046608;28;20037;-57
2021/10/12 03:03:54;;;;;;;;;;;8.10;99.90;;;;;;5046805;28;20048;-57
2021/10/12 03:06:19;;;;;;;6.80;1.42;;;8.10;99.90;;;;;;5047547;28;19928;-60
2021/10/12 03:08:45;;;;;;;;;;;8.00;99.90;;;;;;5042562;28;20094;-60
2021/10/12 03:11:12;;;;;;;5.00;1.58;;;8.00;99.90;;;;;;5047537;28;19916;-59
2021/10/12 03:13:37;;;;;;;3.83;1.90;;;8.00;99.90;;;;;;5046713;28;20076;-59
2021/10/12 03:16:04;;;;;;;;;;;8.00;99.90;;;;;;5053168;28;20059;-59
2021/10/12 03:18:31;;;;;;;8.00;1.77;;;8.00;99.90;;;;;;5066760;28;19970;-60
2021/10/12 03:20:57;;;;;;;5.93;1.52;;;8.00;99.90;;;;;;5066824;28;20048;-58
2021/10/12 03:23:23;;;;;;;;;;;8.00;99.90;;;;;;5068439;28;20400;-58
2021/10/12 03:25:48;;;;;;;5.82;1.80;;;8.10;99.90;;;;;;5067829;28;19921;-59
2021/10/12 03:28:14;;;;;;;;;;;8.10;99.90;;;;;;5068435;28;20083;-58
2021/10/12 03:30:39;;;;;;;6.07;1.67;;;8.00;99.90;;;;;;5066097;28;19912;-54
2021/10/12 03:33:05;;;;;;;8.63;2.72;;;8.00;99.90;;;;;;5067126;28;20037;-60
2021/10/12 03:35:34;;;;;;;6.28;2.58;;;7.90;99.90;;;;;;5068062;28;20132;-58
2021/10/12 03:38:00;;;;;;;9.02;2.67;;;7.90;99.90;;;;;;5064104;28;20111;-60
2021/10/12 03:40:26;;;;;;;3.65;1.98;;;8.00;99.90;;;;;;5067813;28;20115;-56
2021/10/12 03:42:52;;;;;;;;;;;7.90;99.90;;;;;;5068971;28;20092;-59
2021/10/12 03:45:17;;;;;;;7.50;1.63;;;7.90;99.90;;;;;;5057353;28;19920;-58
2021/10/12 03:47:43;;;;;;;7.22;1.55;;;7.90;99.90;;;;;;5047202;28;20037;-55
2021/10/12 03:50:08;;;;;;;;;;;7.90;99.90;;;;;;5047569;28;20037;-56
2021/10/12 03:52:34;;;;;;;5.50;2.20;;;8.00;99.90;;;;;;5048769;28;19924;-57
2021/10/12 03:55:00;;;;;;;;;;;8.00;99.90;;;;;;5050217;28;20112;-64
2021/10/12 03:57:25;;;;;;;16.85;8.90;;;8.00;99.90;;;;;;5050205;28;20338;-61
2021/10/12 03:59:51;;;;;;;;;;;8.00;99.90;;;;;;5049755;28;20500;-59
2021/10/12 04:02:16;;;;;;;16.60;6.10;;;8.00;99.90;;;;;;5048854;28;19977;-59
2021/10/12 04:04:42;;;;;;;;;;;8.00;99.90;;;;;;5050520;28;20037;-58
2021/10/12 04:07:07;;;;;;;7.63;2.20;;;8.00;99.90;;;;;;5047972;28;19965;-59
2021/10/12 04:09:33;;;;;;;14.40;6.10;;;8.00;99.90;;;;;;5048631;28;20456;-59
2021/10/12 04:11:58;;;;;;;;;;;8.10;99.90;;;;;;5049539;28;20132;-58
2021/10/12 04:14:24;;;;;;;7.85;3.50;;;8.00;99.90;;;;;;5049731;28;19992;-59
2021/10/12 04:16:50;;;;;;;;;;;8.10;99.90;;;;;;5063303;28;20756;-57
2021/10/12 04:19:15;;;;;;;7.43;4.00;;;8.10;99.90;;;;;;5069874;28;20388;-57
2021/10/12 04:21:41;;;;;;;;;;;8.10;99.90;;;;;;5070330;28;20510;-59
2021/10/12 04:24:07;;;;;;;7.47;3.15;;;8.10;99.90;;;;;;5070312;28;19969;-57
2021/10/12 04:26:32;;;;;;;5.10;2.75;;;8.00;99.90;;;;;;5069532;28;20497;-59
2021/10/12 04:28:58;;;;;;;9.27;2.70;;;8.00;99.90;;;;;;5074124;28;20063;-57
2021/10/12 04:31:24;;;;;;;;;;;8.10;99.90;;;;;;5059329;28;20036;-58
2021/10/12 04:33:49;;;;;;;10.63;2.75;;;8.10;99.90;;;;;;5050307;28;19920;-59
2021/10/12 04:36:15;;;;;;;;;;;8.00;99.90;;;;;;5049780;28;20910;-59
2021/10/12 04:38:41;;;;;;;8.77;2.60;;;8.00;99.90;;;;;;5057706;28;20817;-60
2021/10/12 04:41:09;;;;;;;;;;;8.10;99.90;;;;;;5065672;28;20032;-60
2021/10/12 04:43:35;;;;;;;4.78;2.33;;;8.10;99.90;;;;;;5058539;28;19917;-59
2021/10/12 04:46:01;;;;;;;4.82;2.50;;;8.10;99.90;;;;;;5055215;28;20042;-60
2021/10/12 04:48:26;;;;;;;;;;;8.10;99.90;;;;;;5069692;28;20037;-58
2021/10/12 04:50:55;;;;;;;8.77;2.38;;;8.10;99.90;;;;;;5067846;28;19916;-58
2021/10/12 04:53:21;;;;;;;4.50;1.80;;;8.00;99.90;;;;;;5069400;28;20037;-59
2021/10/12 04:55:47;;;;;;;3.53;2.15;;;8.00;99.90;;;;;;5069030;28;20492;-55
2021/10/12 04:58:12;;;;;;;;;;;8.00;99.90;;;;;;5068937;28;20040;-58
2021/10/12 05:00:38;;;;;;;6.30;1.90;;;8.00;99.90;;;;;;5057941;28;19943;-60
2021/10/12 05:03:05;;;;;;;4.18;2.13;;;8.00;99.90;;;;;;5041281;28;20168;-57
2021/10/12 05:05:31;;;;;;;8.75;3.75;;;7.90;99.90;;;;;;5043151;28;20115;-61
2021/10/12 05:07:57;;;;;;;7.90;1.98;;;8.00;99.90;;;;;;5047034;28;20087;-65
2021/10/12 05:10:23;;;;;;;;;;;8.00;99.90;;;;;;5049415;28;20036;-62
2021/10/12 05:12:48;;;;;;;8.25;2.35;;;7.90;99.90;;;;;;5046201;28;20288;-56
2021/10/12 05:15:20;;;;;;;;;;;8.00;99.90;;;;;;5048167;28;20464;-59
2021/10/12 05:17:48;;;;;;;5.22;1.70;;;8.00;99.90;;;;;;5068608;28;19912;-61
2021/10/12 05:20:13;;;;;;;7.57;2.80;;;8.00;99.90;;;;;;5067212;28;20552;-59
2021/10/12 05:22:39;;;;;;;;;;;8.10;99.90;;;;;;5070528;28;20082;-57
2021/10/12 05:25:05;;;;;;;7.40;2.22;;;8.10;99.90;;;;;;5066743;28;20303;-64
2021/10/12 05:27:31;;;;;;;;;;;8.10;99.90;;;;;;5068426;28;20056;-59
2021/10/12 05:29:57;;;;;;;6.20;3.17;;;8.00;99.90;;;;;;5069501;28;20007;-61
2021/10/12 05:32:26;;;;;;;3.40;1.73;;;8.10;99.90;;;;;;5069756;28;20045;-62
2021/10/12 05:34:52;;;;;;;4.65;2.05;;;8.00;99.90;;;;;;5070744;28;20075;-60
2021/10/12 05:37:18;;;;;;;;;;;8.10;99.90;;;;;;5069357;28;20125;-60
2021/10/12 05:39:43;;;;;;;10.27;2.67;;;8.00;99.90;;;;;;5071569;28;19920;-59
2021/10/12 05:42:09;;;;;;;;;;;8.00;99.90;;;;;;5068722;28;20072;-56
2021/10/12 05:44:34;;;;;;;9.75;2.42;;;8.00;99.90;;;;;;5068476;28;19920;-62
2021/10/12 05:47:00;;;;;;;;;;;8.10;99.90;;;;;;5067733;28;20048;-58
2021/10/12 05:49:25;;;;;;;35.85;18.80;;;8.10;99.90;;;;;;5069606;28;19917;-60
2021/10/12 05:51:51;;;;;;;;;;;8.10;99.90;;;;;;5068531;28;20047;-61
2021/10/12 05:54:19;;;;;;;9.68;3.42;;;8.10;99.90;;;;;;5069003;28;19920;-60
2021/10/12 05:56:56;;;;;;;9.40;2.85;;;8.00;99.90;;;;;;5067976;28;20098;-61
2021/10/12 05:59:21;;;;;;;10.02;4.97;;;8.00;99.90;;;;;;5063796;28;20055;-60
2021/10/12 06:01:47;;;;;;;;;;;8.00;99.90;;;;;;5067987;28;20036;-61
2021/10/12 06:04:12;;;;;;;13.77;5.90;;;8.00;99.90;;;;;;5069001;28;19930;-61
2021/10/12 06:06:38;;;;;;;;;;;8.00;99.90;;;;;;5068325;28;20480;-60
2021/10/12 06:09:05;;;;;;;7.72;4.00;;;8.00;99.90;;;;;;5071249;28;19923;-56
2021/10/12 06:11:31;;;;;;;7.50;3.20;;;8.00;99.90;;;;;;5069375;28;20080;-57
2021/10/12 06:13:56;;;;;;;;;;;8.00;99.90;;;;;;5069141;28;20084;-59
2021/10/12 06:16:23;;;;;;;9.38;3.22;;;8.00;99.90;;;;;;5066965;28;19920;-61
2021/10/12 06:18:49;;;;;;;;;;;8.00;99.90;;;;;;5069755;28;20068;-61
2021/10/12 06:21:15;;;;;;;11.27;5.05;;;8.10;99.90;;;;;;5069372;28;19924;-61
2021/10/12 06:23:41;;;;;;;11.70;5.00;;;8.00;99.90;;;;;;5066964;28;20569;-60
2021/10/12 06:26:07;;;;;;;;;;;8.00;99.90;;;;;;5068425;28;20381;-58
2021/10/12 06:28:32;;;;;;;11.50;5.43;;;7.90;99.90;;;;;;5068783;28;19924;-57
2021/10/12 06:30:58;;;;;;;;;;;8.00;99.90;;;;;;5069584;28;20036;-61
2021/10/12 06:33:24;;;;;;;16.80;5.90;;;8.00;99.90;;;;;;5068726;28;19923;-61
2021/10/12 06:35:50;;;;;;;8.13;3.22;;;8.10;99.90;;;;;;5068290;28;20381;-62
2021/10/12 06:38:15;;;;;;;;;;;8.00;99.90;;;;;;5069531;28;20090;-62
2021/10/12 06:40:42;;;;;;;9.40;3.35;;;8.00;99.90;;;;;;5067885;28;19916;-59
2021/10/12 06:43:09;;;;;;;8.10;3.10;;;8.00;99.90;;;;;;5065772;28;20033;-61
2021/10/12 06:45:36;;;;;;;9.63;3.60;;;8.00;99.90;;;;;;5067488;28;20036;-56
2021/10/12 06:48:01;;;;;;;10.30;3.50;;;8.00;99.90;;;;;;5047979;28;20052;-61
2021/10/12 06:50:27;;;;;;;;;;;8.00;99.90;;;;;;5048932;28;20400;-61
2021/10/12 06:52:53;;;;;;;8.02;3.20;;;8.00;99.90;;;;;;5048401;28;20077;-61
2021/10/12 06:55:19;;;;;;;;;;;8.10;99.90;;;;;;5048172;28;20589;-59
2021/10/12 06:57:46;;;;;;;6.00;2.60;;;8.10;99.90;;;;;;5048043;28;20007;-60
2021/10/12 07:00:13;;;;;;;8.35;3.00;;;8.10;99.90;;;;;;5065247;28;20043;-60
2021/10/12 07:02:40;;;;;;;8.65;3.53;;;8.10;99.90;;;;;;5068383;28;20060;-61
2021/10/12 07:05:06;;;;;;;9.40;2.70;;;8.10;99.90;;;;;;5067956;28;20060;-56
2021/10/12 07:07:32;;;;;;;7.50;3.00;;;8.00;99.90;;;;;;5065727;28;20048;-60
2021/10/12 07:09:58;;;;;;;;;;;8.00;99.90;;;;;;5080170;28;20036;-60
2021/10/12 07:12:24;;;;;;;7.50;3.70;;;8.00;99.90;;;;;;5087100;28;20014;-59
2021/10/12 07:14:49;;;;;;;9.52;3.58;;;8.10;99.90;;;;;;5088266;28;20115;-59
2021/10/12 07:17:15;;;;;;;;;;;8.00;99.90;;;;;;5087059;28;20048;-60
2021/10/12 07:19:41;;;;;;;18.20;7.82;;;8.00;99.90;;;;;;5091832;28;19923;-60
2021/10/12 07:22:06;;;;;;;7.15;4.35;;;8.10;99.90;;;;;;5087542;28;20047;-61
2021/10/12 07:24:32;;;;;;;11.55;4.43;;;8.00;99.90;;;;;;5088132;28;20594;-61
2021/10/12 07:26:58;;;;;;;10.98;4.65;;;8.00;99.90;;;;;;5087401;28;20044;-59
2021/10/12 07:29:23;;;;;;;;;;;8.00;99.90;;;;;;5086464;28;20039;-58
2021/10/12 07:31:49;;;;;;;12.43;6.60;;;8.00;99.90;;;;;;5070911;28;19923;-63
2021/10/12 07:34:15;;;;;;;;;;;8.10;99.90;;;;;;5063199;23;20539;-58
2021/10/12 07:36:41;;;;;;;10.95;3.15;;;8.10;99.90;;;;;;5042456;28;20007;-61
2021/10/12 07:39:08;;;;;;;10.70;5.38;;;8.00;99.90;;;;;;5025473;28;20045;-59
2021/10/12 07:41:35;;;;;;;8.00;4.35;;;8.00;99.90;;;;;;5023977;28;20033;-61
2021/10/12 07:44:01;;;;;;;13.02;6.72;;;8.10;99.90;;;;;;5039844;28;20030;-63
2021/10/12 07:46:27;;;;;;;;;;;8.10;99.90;;;;;;5033276;28;20061;-62
2021/10/12 07:48:56;;;;;;;7.40;4.90;;;8.10;99.90;;;;;;5001226;28;20057;-62
2021/10/12 07:51:22;;;;;;;6.63;3.95;;;8.10;99.90;;;;;;5012339;28;20053;-63
2021/10/12 07:53:48;;;;;;;6.10;3.05;;;8.10;99.90;;;;;;5011726;28;20053;-60
2021/10/12 07:56:27;;;;;;;;;;;8.10;99.90;;;;;;5012575;28;20107;-60
2021/10/12 07:58:53;;;;;;;4.45;2.30;;;8.20;99.90;;;;;;5009606;28;19970;-61
2021/10/12 08:01:18;;;;;;;;;;;8.20;99.90;;;;;;5010042;28;20041;-59
2021/10/12 08:03:45;;;;;;;5.10;2.35;;;8.20;99.90;;;;;;4994846;28;20289;-58
2021/10/12 08:06:11;;;;;;;4.65;2.38;;;8.10;99.90;;;;;;5010992;28;20770;-60
2021/10/12 08:08:36;;;;;;;;;;;8.20;99.90;;;;;;5024232;28;20037;-57
2021/10/12 08:11:04;;;;;;;4.00;2.00;;;8.20;99.90;;;;;;5030335;28;19917;-59
2021/10/12 08:13:29;;;;;;;2.80;1.70;;;8.30;99.90;;;;;;5031587;28;20509;-60
2021/10/12 08:16:01;;;;;;;;;;;8.20;99.90;;;;;;5030413;28;20041;-62
2021/10/12 08:18:26;;;;;;;3.85;1.60;;;8.30;99.90;;;;;;5031666;28;19997;-58
2021/10/12 08:20:52;;;;;;;;;;;8.30;99.90;;;;;;5008913;28;20101;-55
2021/10/12 08:23:18;;;;;;;3.50;1.63;;;8.30;99.90;;;;;;5012819;28;19925;-60
2021/10/12 08:25:44;;;;;;;;;;;8.30;99.90;;;;;;5013730;28;20187;-59
2021/10/12 08:28:10;;;;;;;3.50;1.40;;;8.30;99.90;;;;;;5012484;28;20377;-58
2021/10/12 08:30:36;;;;;;;3.10;1.30;;;8.30;99.90;;;;;;5016064;28;20034;-58
2021/10/12 08:33:02;;;;;;;;;;;8.30;99.90;;;;;;5011516;28;21180;-60
2021/10/12 08:35:27;;;;;;;2.38;1.27;;;8.30;99.90;;;;;;5010933;28;19917;-60
2021/10/12 08:37:54;;;;;;;;;;;8.30;99.90;;;;;;5018118;28;20044;-60
2021/10/12 08:40:20;;;;;;;2.80;1.20;;;8.30;99.90;;;;;;5005191;28;19967;-55
2021/10/12 08:42:47;;;;;;;;;;;8.30;99.90;;;;;;5014114;28;20049;-59
2021/10/12 08:45:14;;;;;;;;;;;8.40;99.90;;;;;;5031205;28;19925;-59
2021/10/12 08:47:40;;;;;;;3.42;1.77;;;8.40;99.90;;;;;;5030312;28;19921;-63
2021/10/12 08:50:13;;;;;;;3.67;1.67;;;8.40;99.90;;;;;;5032016;28;20115;-62
2021/10/12 08:52:39;;;;;;;8.85;5.18;;;8.50;99.90;;;;;;5033408;28;20037;-61
2021/10/12 08:55:05;;;;;;;;;;;8.50;99.90;;;;;;5031656;28;20041;-63
2021/10/12 08:57:36;;;;;;;4.55;2.50;;;8.50;99.90;;;;;;5031161;28;19925;-59
2021/10/12 09:00:27;;;;;;;2.05;1.13;;;8.60;99.90;;;;;;5000800;28;20038;-64
2021/10/12 09:06:03;;;;;;;2.05;0.90;;;8.60;99.90;;;;;;4989992;28;20046;-62
2021/10/12 09:08:35;;;;;;;1.55;1.00;;;8.70;99.90;;;;;;4998617;28;20100;-65
2021/10/12 09:11:03;;;;;;;2.00;1.00;;;8.70;99.90;;;;;;5005906;28;20046;-58
2021/10/12 09:13:29;;;;;;;2.67;1.05;;;8.70;99.90;;;;;;5011613;28;20067;-64
2021/10/12 09:16:04;;;;;;;;;;;8.70;99.90;;;;;;4992892;28;20034;-59
2021/10/12 09:18:49;;;;;;;2.10;1.25;;;8.70;99.90;;;;;;4973964;28;19918;-61
2021/10/12 09:21:18;;;;;;;1.40;1.25;;;8.70;99.90;;;;;;4989764;28;20035;-60
2021/10/12 09:23:43;;;;;;;1.55;1.27;;;8.60;99.90;;;;;;4991596;28;20038;-63
2021/10/12 09:26:19;;;;;;;;;;;8.70;99.90;;;;;;4993777;28;20109;-62
2021/10/12 09:28:44;;;;;;;2.47;1.27;;;8.80;99.90;;;;;;4993146;28;19979;-64
2021/10/12 09:31:10;;;;;;;;;;;8.70;99.90;;;;;;4989623;28;20708;-60
2021/10/12 09:33:49;;;;;;;1.25;1.00;;;8.80;99.90;;;;;;4988702;28;20617;-60
2021/10/12 09:36:35;;;;;;;1.48;1.13;;;8.70;99.90;;;;;;4992627;28;20043;-63
2021/10/12 09:39:02;;;;;;;1.55;1.05;;;8.80;99.90;;;;;;4994666;28;20077;-60
2021/10/12 09:41:29;;;;;;;4.20;1.90;;;8.70;99.90;;;;;;4987549;28;20101;-58
2021/10/12 09:44:15;;;;;;;1.70;1.60;;;8.70;99.90;;;;;;4994256;28;20038;-58
2021/10/12 09:46:46;;;;;;;4.10;2.03;;;8.70;99.90;;;;;;4977437;28;20118;-63
2021/10/12 09:49:20;;;;;;;2.05;1.85;;;8.70;99.90;;;;;;4973660;28;20054;-63
2021/10/12 09:52:06;;;;;;;2.80;2.10;;;8.70;99.90;;;;;;4986438;28;20352;-63
2021/10/12 09:55:03;;;;;;;3.80;2.50;;;8.80;99.90;;;;;;5009367;28;20045;-61
2021/10/12 09:57:30;;;;;;;3.50;2.42;;;8.80;99.90;;;;;;4997011;28;20042;-59
2021/10/12 09:59:56;;;;;;;8.48;5.15;;;8.80;99.90;;;;;;4990853;28;20058;-61
2021/10/12 10:02:24;;;;;;;4.93;3.30;;;8.80;99.90;;;;;;4994832;28;20054;-61
2021/10/12 10:04:52;;;;;;;12.73;6.40;;;8.80;99.90;;;;;;5009068;28;20077;-58
2021/10/12 10:07:29;;;;;;;20.60;10.95;;;8.80;99.90;;;;;;5007017;28;20099;-61
2021/10/12 10:09:57;;;;;;;7.53;4.55;;;8.80;99.90;;;;;;4999490;28;20117;-61
2021/10/12 10:12:25;;;;;;;4.45;2.85;;;8.90;99.90;;;;;;5011645;28;20069;-61
2021/10/12 10:14:50;;;;;;;3.20;2.10;;;8.80;99.90;;;;;;5011494;28;20041;-58
2021/10/12 10:17:16;;;;;;;;;;;8.90;99.90;;;;;;5010165;28;20049;-60
2021/10/12 10:19:46;;;;;;;2.95;1.88;;;9.00;99.90;;;;;;5009918;28;20289;-63
2021/10/12 10:22:35;;;;;;;6.57;4.00;;;9.00;99.90;;;;;;4994425;28;20043;-63
2021/10/12 10:25:21;;;;;;;5.03;1.50;;;9.00;99.90;;;;;;4993971;28;20128;-63
2021/10/12 10:27:47;;;;;;;2.92;2.30;;;9.00;99.90;;;;;;5021919;23;20049;-63
2021/10/12 10:30:12;;;;;;;;;;;9.00;99.90;;;;;;5019749;28;20080;-62
2021/10/12 10:32:47;;;;;;;2.03;1.20;;;9.00;99.90;;;;;;5014113;28;20320;-63
2021/10/12 10:35:14;;;;;;;2.42;1.30;;;9.00;99.90;;;;;;4995403;28;20097;-58
2021/10/12 10:37:40;;;;;;;1.10;1.00;;;9.10;99.90;;;;;;4996749;28;20041;-62
2021/10/12 10:40:27;;;;;;;2.85;1.30;;;9.10;99.90;;;;;;5007731;28;20029;-62
2021/10/12 10:42:55;;;;;;;3.05;1.55;;;9.10;99.90;;;;;;5002814;28;20049;-63
2021/10/12 10:45:39;;;;;;;2.60;1.55;;;9.10;99.90;;;;;;5010804;28;20046;-60
2021/10/12 10:48:05;;;;;;;3.13;1.85;;;9.10;99.90;;;;;;5011933;28;20057;-62
2021/10/12 10:50:33;;;;;;;;;;;9.10;99.90;;;;;;5008344;28;20133;-61
2021/10/12 10:53:01;;;;;;;3.20;2.05;;;9.10;99.90;;;;;;5012844;28;19927;-61
2021/10/12 10:55:34;;;;;;;41.45;24.10;;;9.20;99.90;;;;;;5009901;28;20061;-61
2021/10/12 10:58:11;;;;;;;7.95;5.15;;;9.20;99.90;;;;;;5011996;28;20053;-60
2021/10/12 11:00:50;;;;;;;2.92;2.40;;;9.20;99.90;;;;;;5008104;28;20113;-62
2021/10/12 11:03:30;;;;;;;54.55;24.60;;;9.20;99.90;;;;;;5005484;28;20046;-60
2021/10/12 11:06:18;;;;;;;9.77;3.22;;;9.10;99.90;;;;;;5006563;28;20076;-59
2021/10/12 11:09:01;;;;;;;8.88;4.85;;;9.10;99.90;;;;;;5006451;28;20050;-60
2021/10/12 11:11:36;;;;;;;3.50;2.45;;;9.10;99.90;;;;;;5008835;28;20133;-61
2021/10/12 11:14:03;;;;;;;2.65;2.00;;;9.10;99.90;;;;;;5007661;28;20041;-62
2021/10/12 11:16:34;;;;;;;4.35;2.28;;;9.10;99.90;;;;;;5004746;28;20034;-62
2021/10/12 11:19:01;;;;;;;3.80;2.20;;;9.10;99.90;;;;;;5004493;28;20085;-63
2021/10/12 11:21:27;;;;;;;4.40;2.78;;;9.10;99.90;;;;;;5000764;28;20050;-61
2021/10/12 11:23:57;;;;;;;;;;;9.10;99.90;;;;;;5003490;28;22013;-62
2021/10/12 11:26:30;;;;;;;3.88;2.45;;;9.10;99.90;;;;;;5005259;28;19955;-60
2021/10/12 11:29:02;;;;;;;3.03;2.42;;;9.10;99.90;;;;;;5004844;28;20445;-63
2021/10/12 11:31:29;;;;;;;4.55;2.97;;;9.20;99.90;;;;;;4998147;28;20682;-62
2021/10/12 11:33:57;;;;;;;10.75;5.75;;;9.20;99.90;;;;;;5000106;28;20042;-60
2021/10/12 11:36:27;;;;;;;12.02;4.82;;;9.10;99.90;;;;;;5001350;28;20054;-62
2021/10/12 11:38:55;;;;;;;7.47;4.47;;;9.10;99.90;;;;;;5007764;28;20050;-62
2021/10/12 11:41:24;;;;;;;10.48;5.43;;;9.10;99.90;;;;;;5008333;28;20127;-61
2021/10/12 11:43:53;;;;;;;5.22;3.15;;;9.10;99.90;;;;;;5008566;28;20042;-62
2021/10/12 11:46:36;;;;;;;2.03;1.52;;;9.20;99.90;;;;;;5006908;28;20498;-60
2021/10/12 11:49:13;;;;;;;4.07;1.60;;;9.20;99.90;;;;;;5006642;28;20046;-62
2021/10/12 11:51:39;;;;;;;3.75;1.73;;;9.10;99.90;;;;;;4988258;28;20540;-61
2021/10/12 11:54:06;;;;;;;3.97;1.52;;;9.20;99.90;;;;;;4988275;28;20571;-58
2021/10/12 11:56:34;;;;;;;4.28;1.92;;;9.20;99.90;;;;;;4988891;28;20062;-62
2021/10/12 11:59:00;;;;;;;2.55;1.58;;;9.20;99.90;;;;;;5001209;28;20053;-59
2021/10/12 12:01:30;;;;;;;;;;;9.10;99.90;;;;;;5000604;28;20034;-60
2021/10/12 12:03:56;;;;;;;5.60;1.60;;;9.00;99.90;;;;;;5008754;28;19917;-61
2021/10/12 12:06:24;;;;;;;2.15;1.30;;;9.00;99.90;;;;;;5007491;28;20140;-61
2021/10/12 12:08:53;;;;;;;3.53;1.50;;;9.00;99.90;;;;;;5003274;28;20503;-60
2021/10/12 12:11:25;;;;;;;8.68;1.60;;;8.90;99.90;;;;;;5003617;28;20438;-62
2021/10/12 12:13:53;;;;;;;3.72;1.20;;;8.90;99.90;;;;;;5008864;28;20117;-61
2021/10/12 12:16:22;;;;;;;1.35;0.90;;;8.90;99.90;;;;;;5008199;28;20560;-59
2021/10/12 12:18:48;;;;;;;20.60;1.30;;;8.90;99.90;;;;;;5009858;28;20057;-57
2021/10/12 12:21:14;;;;;;;;;;;8.80;99.90;;;;;;5001881;28;20498;-59
2021/10/12 12:23:47;;;;;;;1.83;0.73;;;8.80;99.90;;;;;;5003192;28;19976;-59
2021/10/12 12:26:26;;;;;;;2.25;1.08;;;8.90;99.90;;;;;;5009718;28;20049;-62
2021/10/12 12:28:52;;;;;;;2.10;0.75;;;8.90;99.90;;;;;;5005343;28;20049;-59
2021/10/12 12:31:24;;;;;;;;;;;8.80;99.90;;;;;;5007028;28;20564;-60
2021/10/12 12:33:53;;;;;;;2.20;0.80;;;8.90;99.90;;;;;;5006960;28;19917;-56
2021/10/12 12:36:31;;;;;;;0.98;0.60;;;8.90;99.90;;;;;;5005318;28;20122;-60
2021/10/12 12:39:08;;;;;;;0.50;0.50;;;9.00;99.90;;;;;;5006539;28;20092;-59
2021/10/12 12:41:42;;;;;;;2.85;0.47;;;9.00;99.90;;;;;;5008391;28;20041;-61
2021/10/12 12:44:10;;;;;;;2.85;0.90;;;9.00;99.90;;;;;;5007992;28;20045;-58
2021/10/12 12:46:53;;;;;;;1.92;0.50;;;9.00;99.90;;;;;;4993912;28;20974;-60
2021/10/12 12:49:19;;;;;;;0.60;0.40;;;8.90;99.90;;;;;;5008124;28;20096;-59
2021/10/12 12:51:47;;;;;;;;;;;8.90;99.90;;;;;;5007109;28;20041;-58
2021/10/12 12:54:33;;;;;;;0.90;0.57;;;8.90;99.90;;;;;;5005402;28;19922;-59
2021/10/12 12:57:18;;;;;;;0.55;0.50;;;8.90;99.90;;;;;;5008867;28;20046;-58
2021/10/12 12:59:57;;;;;;;2.90;0.55;;;8.90;99.90;;;;;;5008830;28;20061;-59
2021/10/12 13:02:23;;;;;;;7.85;0.98;;;8.90;99.90;;;;;;5007136;28;20568;-59
2021/10/12 13:04:49;;;;;;;;;;;9.00;99.90;;;;;;5009475;28;20034;-58
2021/10/12 13:07:16;;;;;;;2.05;0.90;;;9.10;99.90;;;;;;5004682;28;19922;-59
2021/10/12 13:09:45;;;;;;;2.50;0.75;;;9.00;99.90;;;;;;5001599;28;20042;-57
2021/10/12 13:12:13;;;;;;;1.45;0.60;;;9.00;99.90;;;;;;5005020;28;20030;-59
2021/10/12 13:14:38;;;;;;;1.55;0.40;;;9.00;99.90;;;;;;4997841;28;20666;-58
2021/10/12 13:17:04;;;;;;;;;;;9.00;99.90;;;;;;5008563;28;20040;-58
2021/10/12 13:19:29;;;;;;;0.98;0.80;;;9.10;99.90;;;;;;5000794;28;19928;-60
2021/10/12 13:21:55;;;;;;;;;;;8.90;99.90;;;;;;5004067;28;20038;-57
2021/10/12 13:24:21;;;;;;;2.30;1.00;;;8.90;99.90;;;;;;5009191;28;19968;-58
2021/10/12 13:26:46;;;;;;;1.50;1.15;;;8.90;99.90;;;;;;5007216;28;20046;-60